sensor_id;sensor_type;location;lat;lon;timestamp;P1;durP1;ratioP1;P2;durP2;ratioP2
11037;SDS011;5572;49.540;11.932;2022-07-23T00:01:44;9.37;;;6.27;;
11037;SDS011;5572;49.540;11.932;2022-07-23T00:04:12;7.00;;;5.37;;
11037;SDS011;5572;49.540;11.932;2022-07-23T00:06:39;6.40;;;5.80;;
11037;SDS011;5572;49.540;11.932;2022-07-23T00:09:05;6.43;;;5.77;;
11037;SDS011;5572;49.540;11.932;2022-07-23T00:11:32;8.60;;;5.37;;
11037;SDS011;5572;49.540;11.932;2022-07-23T00:13:58;6.73;;;5.70;;
11037;SDS011;5572;49.540;11.932;2022-07-23T00:16:26;6.93;;;5.90;;
11037;SDS011;5572;49.540;11.932;2022-07-23T00:18:53;6.57;;;5.80;;
11037;SDS011;5572;49.540;11.932;2022-07-23T00:21:19;6.83;;;6.13;;
11037;SDS011;5572;49.540;11.932;2022-07-23T00:23:46;7.07;;;6.13;;
11037;SDS011;5572;49.540;11.932;2022-07-23T00:26:12;9.03;;;6.27;;
11037;SDS011;5572;49.540;11.932;2022-07-23T00:28:39;8.07;;;6.03;;
11037;SDS011;5572;49.540;11.932;2022-07-23T00:31:05;10.37;;;6.83;;
11037;SDS011;5572;49.540;11.932;2022-07-23T00:33:33;13.23;;;6.20;;
11037;SDS011;5572;49.540;11.932;2022-07-23T00:36:00;12.67;;;6.80;;
11037;SDS011;5572;49.540;11.932;2022-07-23T00:38:26;25.57;;;8.63;;
11037;SDS011;5572;49.540;11.932;2022-07-23T00:40:53;24.73;;;8.57;;
11037;SDS011;5572;49.540;11.932;2022-07-23T00:43:19;22.47;;;10.83;;
11037;SDS011;5572;49.540;11.932;2022-07-23T00:45:46;18.27;;;9.47;;
11037;SDS011;5572;49.540;11.932;2022-07-23T00:48:13;20.87;;;10.63;;
11037;SDS011;5572;49.540;11.932;2022-07-23T00:50:41;16.37;;;9.07;;
11037;SDS011;5572;49.540;11.932;2022-07-23T00:53:08;20.10;;;9.70;;
11037;SDS011;5572;49.540;11.932;2022-07-23T00:55:35;12.97;;;9.17;;
11037;SDS011;5572;49.540;11.932;2022-07-23T00:58:02;9.40;;;7.50;;
11037;SDS011;5572;49.540;11.932;2022-07-23T01:00:28;14.07;;;8.63;;
11037;SDS011;5572;49.540;11.932;2022-07-23T01:02:55;16.30;;;8.43;;
11037;SDS011;5572;49.540;11.932;2022-07-23T01:05:22;15.93;;;8.00;;
11037;SDS011;5572;49.540;11.932;2022-07-23T01:07:50;21.30;;;9.00;;
11037;SDS011;5572;49.540;11.932;2022-07-23T01:10:17;16.80;;;8.47;;
11037;SDS011;5572;49.540;11.932;2022-07-23T01:13:00;15.50;;;10.97;;
11037;SDS011;5572;49.540;11.932;2022-07-23T01:15:28;11.63;;;7.97;;
11037;SDS011;5572;49.540;11.932;2022-07-23T01:17:55;14.80;;;9.23;;
11037;SDS011;5572;49.540;11.932;2022-07-23T01:20:22;17.23;;;10.57;;
11037;SDS011;5572;49.540;11.932;2022-07-23T01:22:50;17.17;;;10.57;;
11037;SDS011;5572;49.540;11.932;2022-07-23T01:25:17;30.13;;;13.37;;
11037;SDS011;5572;49.540;11.932;2022-07-23T01:27:44;15.83;;;11.20;;
11037;SDS011;5572;49.540;11.932;2022-07-23T01:30:11;14.97;;;10.37;;
11037;SDS011;5572;49.540;11.932;2022-07-23T01:32:38;15.83;;;8.13;;
11037;SDS011;5572;49.540;11.932;2022-07-23T01:35:06;9.73;;;7.53;;
11037;SDS011;5572;49.540;11.932;2022-07-23T01:37:33;17.13;;;8.27;;
11037;SDS011;5572;49.540;11.932;2022-07-23T01:40:01;13.60;;;7.97;;
11037;SDS011;5572;49.540;11.932;2022-07-23T01:42:29;11.30;;;8.57;;
11037;SDS011;5572;49.540;11.932;2022-07-23T01:44:55;16.90;;;9.57;;
11037;SDS011;5572;49.540;11.932;2022-07-23T01:47:22;12.83;;;9.37;;
11037;SDS011;5572;49.540;11.932;2022-07-23T01:49:49;12.63;;;8.30;;
11037;SDS011;5572;49.540;11.932;2022-07-23T01:52:15;16.53;;;9.17;;
11037;SDS011;5572;49.540;11.932;2022-07-23T01:54:42;16.50;;;9.57;;
11037;SDS011;5572;49.540;11.932;2022-07-23T01:57:10;8.87;;;7.83;;
11037;SDS011;5572;49.540;11.932;2022-07-23T01:59:36;13.70;;;9.90;;
11037;SDS011;5572;49.540;11.932;2022-07-23T02:02:04;10.40;;;7.80;;
11037;SDS011;5572;49.540;11.932;2022-07-23T02:04:31;17.90;;;10.40;;
11037;SDS011;5572;49.540;11.932;2022-07-23T02:07:00;13.50;;;10.03;;
11037;SDS011;5572;49.540;11.932;2022-07-23T02:09:27;10.77;;;8.80;;
11037;SDS011;5572;49.540;11.932;2022-07-23T02:11:53;15.13;;;9.40;;
11037;SDS011;5572;49.540;11.932;2022-07-23T02:14:21;9.33;;;7.57;;
11037;SDS011;5572;49.540;11.932;2022-07-23T02:16:47;18.80;;;8.43;;
11037;SDS011;5572;49.540;11.932;2022-07-23T02:19:14;13.77;;;6.87;;
11037;SDS011;5572;49.540;11.932;2022-07-23T02:21:41;14.47;;;9.80;;
11037;SDS011;5572;49.540;11.932;2022-07-23T02:24:07;10.93;;;8.33;;
11037;SDS011;5572;49.540;11.932;2022-07-23T02:26:34;10.80;;;9.07;;
11037;SDS011;5572;49.540;11.932;2022-07-23T02:29:00;10.57;;;8.97;;
11037;SDS011;5572;49.540;11.932;2022-07-23T02:31:29;13.27;;;8.80;;
11037;SDS011;5572;49.540;11.932;2022-07-23T02:33:56;10.33;;;7.50;;
11037;SDS011;5572;49.540;11.932;2022-07-23T02:36:22;13.73;;;9.37;;
11037;SDS011;5572;49.540;11.932;2022-07-23T02:38:49;13.97;;;9.50;;
11037;SDS011;5572;49.540;11.932;2022-07-23T02:41:16;16.23;;;11.03;;
11037;SDS011;5572;49.540;11.932;2022-07-23T02:43:42;11.00;;;7.90;;
11037;SDS011;5572;49.540;11.932;2022-07-23T02:46:09;11.93;;;7.80;;
11037;SDS011;5572;49.540;11.932;2022-07-23T02:48:37;12.07;;;8.07;;
11037;SDS011;5572;49.540;11.932;2022-07-23T02:51:03;10.00;;;8.57;;
11037;SDS011;5572;49.540;11.932;2022-07-23T02:53:30;13.23;;;10.17;;
11037;SDS011;5572;49.540;11.932;2022-07-23T02:55:57;11.23;;;8.40;;
11037;SDS011;5572;49.540;11.932;2022-07-23T02:58:23;16.07;;;9.80;;
11037;SDS011;5572;49.540;11.932;2022-07-23T03:00:51;10.50;;;8.10;;
11037;SDS011;5572;49.540;11.932;2022-07-23T03:03:18;12.03;;;9.73;;
11037;SDS011;5572;49.540;11.932;2022-07-23T03:05:46;17.17;;;9.83;;
11037;SDS011;5572;49.540;11.932;2022-07-23T03:08:13;18.50;;;9.77;;
11037;SDS011;5572;49.540;11.932;2022-07-23T03:10:39;10.70;;;7.40;;
11037;SDS011;5572;49.540;11.932;2022-07-23T03:13:06;11.03;;;8.93;;
11037;SDS011;5572;49.540;11.932;2022-07-23T03:15:32;15.57;;;12.23;;
11037;SDS011;5572;49.540;11.932;2022-07-23T03:17:59;16.03;;;10.60;;
11037;SDS011;5572;49.540;11.932;2022-07-23T03:20:25;14.67;;;11.37;;
11037;SDS011;5572;49.540;11.932;2022-07-23T03:22:53;13.10;;;9.00;;
11037;SDS011;5572;49.540;11.932;2022-07-23T03:25:20;9.20;;;8.30;;
11037;SDS011;5572;49.540;11.932;2022-07-23T03:27:46;12.57;;;8.60;;
11037;SDS011;5572;49.540;11.932;2022-07-23T03:30:13;9.73;;;8.73;;
11037;SDS011;5572;49.540;11.932;2022-07-23T03:32:40;10.00;;;8.60;;
11037;SDS011;5572;49.540;11.932;2022-07-23T03:35:06;12.37;;;8.80;;
11037;SDS011;5572;49.540;11.932;2022-07-23T03:37:34;13.07;;;9.67;;
11037;SDS011;5572;49.540;11.932;2022-07-23T03:40:02;13.53;;;8.90;;
11037;SDS011;5572;49.540;11.932;2022-07-23T03:42:29;10.07;;;7.83;;
11037;SDS011;5572;49.540;11.932;2022-07-23T03:44:55;9.47;;;8.00;;
11037;SDS011;5572;49.540;11.932;2022-07-23T03:47:22;13.20;;;8.20;;
11037;SDS011;5572;49.540;11.932;2022-07-23T03:49:48;9.80;;;8.80;;
11037;SDS011;5572;49.540;11.932;2022-07-23T03:52:15;8.77;;;7.30;;
11037;SDS011;5572;49.540;11.932;2022-07-23T03:54:41;8.40;;;7.43;;
11037;SDS011;5572;49.540;11.932;2022-07-23T03:57:09;9.97;;;8.97;;
11037;SDS011;5572;49.540;11.932;2022-07-23T03:59:36;9.70;;;6.73;;
11037;SDS011;5572;49.540;11.932;2022-07-23T04:02:02;10.30;;;8.67;;
11037;SDS011;5572;49.540;11.932;2022-07-23T04:04:29;11.17;;;8.60;;
11037;SDS011;5572;49.540;11.932;2022-07-23T04:06:55;10.00;;;8.90;;
11037;SDS011;5572;49.540;11.932;2022-07-23T04:09:22;9.57;;;7.90;;
11037;SDS011;5572;49.540;11.932;2022-07-23T04:11:48;10.47;;;9.27;;
11037;SDS011;5572;49.540;11.932;2022-07-23T04:14:16;11.93;;;10.40;;
11037;SDS011;5572;49.540;11.932;2022-07-23T04:16:43;14.47;;;7.87;;
11037;SDS011;5572;49.540;11.932;2022-07-23T04:19:09;11.07;;;8.73;;
11037;SDS011;5572;49.540;11.932;2022-07-23T04:21:36;10.03;;;9.00;;
11037;SDS011;5572;49.540;11.932;2022-07-23T04:24:02;8.30;;;7.50;;
11037;SDS011;5572;49.540;11.932;2022-07-23T04:26:30;12.60;;;8.83;;
11037;SDS011;5572;49.540;11.932;2022-07-23T04:28:56;13.10;;;8.50;;
11037;SDS011;5572;49.540;11.932;2022-07-23T04:31:24;12.27;;;9.77;;
11037;SDS011;5572;49.540;11.932;2022-07-23T04:33:50;16.73;;;9.23;;
11037;SDS011;5572;49.540;11.932;2022-07-23T04:36:17;12.27;;;9.57;;
11037;SDS011;5572;49.540;11.932;2022-07-23T04:38:44;11.13;;;8.53;;
11037;SDS011;5572;49.540;11.932;2022-07-23T04:41:10;9.90;;;8.77;;
11037;SDS011;5572;49.540;11.932;2022-07-23T04:43:37;10.47;;;8.00;;
11037;SDS011;5572;49.540;11.932;2022-07-23T04:46:03;7.00;;;6.30;;
11037;SDS011;5572;49.540;11.932;2022-07-23T04:48:32;10.67;;;7.40;;
11037;SDS011;5572;49.540;11.932;2022-07-23T04:50:58;10.00;;;7.87;;
11037;SDS011;5572;49.540;11.932;2022-07-23T04:53:25;8.63;;;7.40;;
11037;SDS011;5572;49.540;11.932;2022-07-23T04:55:51;11.13;;;7.80;;
11037;SDS011;5572;49.540;11.932;2022-07-23T04:58:18;8.23;;;7.40;;
11037;SDS011;5572;49.540;11.932;2022-07-23T05:00:45;9.83;;;8.73;;
11037;SDS011;5572;49.540;11.932;2022-07-23T05:03:12;8.70;;;7.87;;
11037;SDS011;5572;49.540;11.932;2022-07-23T05:05:39;9.93;;;8.70;;
11037;SDS011;5572;49.540;11.932;2022-07-23T05:08:06;7.70;;;6.30;;
11037;SDS011;5572;49.540;11.932;2022-07-23T05:10:32;7.63;;;6.90;;
11037;SDS011;5572;49.540;11.932;2022-07-23T05:12:59;8.40;;;6.57;;
11037;SDS011;5572;49.540;11.932;2022-07-23T05:15:26;9.93;;;8.73;;
11037;SDS011;5572;49.540;11.932;2022-07-23T05:17:52;12.60;;;7.67;;
11037;SDS011;5572;49.540;11.932;2022-07-23T05:20:19;9.47;;;7.87;;
11037;SDS011;5572;49.540;11.932;2022-07-23T05:22:47;10.30;;;8.60;;
11037;SDS011;5572;49.540;11.932;2022-07-23T05:25:13;11.70;;;10.50;;
11037;SDS011;5572;49.540;11.932;2022-07-23T05:27:40;10.47;;;7.80;;
11037;SDS011;5572;49.540;11.932;2022-07-23T05:30:07;10.00;;;8.50;;
11037;SDS011;5572;49.540;11.932;2022-07-23T05:32:34;8.77;;;7.67;;
11037;SDS011;5572;49.540;11.932;2022-07-23T05:35:01;7.60;;;6.90;;
11037;SDS011;5572;49.540;11.932;2022-07-23T05:37:28;6.97;;;6.27;;
11037;SDS011;5572;49.540;11.932;2022-07-23T05:39:56;10.17;;;8.37;;
11037;SDS011;5572;49.540;11.932;2022-07-23T05:42:27;8.37;;;7.57;;
11037;SDS011;5572;49.540;11.932;2022-07-23T05:44:53;7.53;;;6.80;;
11037;SDS011;5572;49.540;11.932;2022-07-23T05:47:20;8.40;;;7.20;;
11037;SDS011;5572;49.540;11.932;2022-07-23T05:49:46;7.43;;;6.30;;
11037;SDS011;5572;49.540;11.932;2022-07-23T05:52:12;8.17;;;6.17;;
11037;SDS011;5572;49.540;11.932;2022-07-23T05:54:40;6.90;;;5.83;;
11037;SDS011;5572;49.540;11.932;2022-07-23T05:57:08;7.10;;;6.40;;
11037;SDS011;5572;49.540;11.932;2022-07-23T05:59:34;8.27;;;6.53;;
11037;SDS011;5572;49.540;11.932;2022-07-23T06:02:01;6.87;;;6.17;;
11037;SDS011;5572;49.540;11.932;2022-07-23T06:04:27;7.90;;;6.03;;
11037;SDS011;5572;49.540;11.932;2022-07-23T06:06:54;8.13;;;6.10;;
11037;SDS011;5572;49.540;11.932;2022-07-23T06:09:20;8.10;;;5.77;;
11037;SDS011;5572;49.540;11.932;2022-07-23T06:11:47;7.13;;;5.70;;
11037;SDS011;5572;49.540;11.932;2022-07-23T06:14:15;4.73;;;4.33;;
11037;SDS011;5572;49.540;11.932;2022-07-23T06:16:41;6.03;;;4.90;;
11037;SDS011;5572;49.540;11.932;2022-07-23T06:19:08;6.37;;;4.77;;
11037;SDS011;5572;49.540;11.932;2022-07-23T06:21:34;7.70;;;5.47;;
11037;SDS011;5572;49.540;11.932;2022-07-23T06:24:01;6.20;;;4.50;;
11037;SDS011;5572;49.540;11.932;2022-07-23T06:26:27;4.80;;;4.37;;
11037;SDS011;5572;49.540;11.932;2022-07-23T06:28:54;9.33;;;4.07;;
11037;SDS011;5572;49.540;11.932;2022-07-23T06:31:22;5.40;;;3.80;;
11037;SDS011;5572;49.540;11.932;2022-07-23T06:33:48;3.97;;;3.67;;
11037;SDS011;5572;49.540;11.932;2022-07-23T06:36:15;4.73;;;4.30;;
11037;SDS011;5572;49.540;11.932;2022-07-23T06:38:42;4.93;;;4.43;;
11037;SDS011;5572;49.540;11.932;2022-07-23T06:41:08;4.37;;;3.97;;
11037;SDS011;5572;49.540;11.932;2022-07-23T06:43:35;4.10;;;3.80;;
11037;SDS011;5572;49.540;11.932;2022-07-23T06:46:01;4.53;;;4.13;;
11037;SDS011;5572;49.540;11.932;2022-07-23T06:48:29;4.57;;;4.10;;
11037;SDS011;5572;49.540;11.932;2022-07-23T06:50:56;5.57;;;4.60;;
11037;SDS011;5572;49.540;11.932;2022-07-23T06:53:23;4.53;;;4.13;;
11037;SDS011;5572;49.540;11.932;2022-07-23T06:55:49;5.50;;;4.20;;
11037;SDS011;5572;49.540;11.932;2022-07-23T06:58:16;4.70;;;4.30;;
11037;SDS011;5572;49.540;11.932;2022-07-23T07:00:44;5.07;;;4.53;;
11037;SDS011;5572;49.540;11.932;2022-07-23T07:03:10;4.67;;;4.27;;
11037;SDS011;5572;49.540;11.932;2022-07-23T07:05:38;5.07;;;4.50;;
11037;SDS011;5572;49.540;11.932;2022-07-23T07:08:05;5.47;;;4.97;;
11037;SDS011;5572;49.540;11.932;2022-07-23T07:10:32;6.60;;;4.20;;
11037;SDS011;5572;49.540;11.932;2022-07-23T07:12:59;4.63;;;4.15;;
11037;SDS011;5572;49.540;11.932;2022-07-23T07:15:25;5.17;;;4.60;;
11037;SDS011;5572;49.540;11.932;2022-07-23T07:17:52;10.40;;;4.63;;
11037;SDS011;5572;49.540;11.932;2022-07-23T07:20:18;6.37;;;4.37;;
11037;SDS011;5572;49.540;11.932;2022-07-23T07:22:46;4.57;;;4.17;;
11037;SDS011;5572;49.540;11.932;2022-07-23T07:25:13;7.60;;;4.57;;
11037;SDS011;5572;49.540;11.932;2022-07-23T07:27:40;5.67;;;4.93;;
11037;SDS011;5572;49.540;11.932;2022-07-23T07:30:09;5.23;;;4.53;;
11037;SDS011;5572;49.540;11.932;2022-07-23T07:32:37;5.10;;;4.70;;
11037;SDS011;5572;49.540;11.932;2022-07-23T07:35:04;5.60;;;4.97;;
11037;SDS011;5572;49.540;11.932;2022-07-23T07:37:31;5.97;;;5.10;;
11037;SDS011;5572;49.540;11.932;2022-07-23T07:40:03;8.23;;;5.33;;
11037;SDS011;5572;49.540;11.932;2022-07-23T07:42:31;6.90;;;5.00;;
11037;SDS011;5572;49.540;11.932;2022-07-23T07:44:57;6.70;;;5.40;;
11037;SDS011;5572;49.540;11.932;2022-07-23T07:47:24;6.03;;;5.53;;
11037;SDS011;5572;49.540;11.932;2022-07-23T07:49:51;8.18;;;5.32;;
11037;SDS011;5572;49.540;11.932;2022-07-23T07:52:17;6.95;;;5.60;;
11037;SDS011;5572;49.540;11.932;2022-07-23T07:54:44;7.03;;;6.32;;
11037;SDS011;5572;49.540;11.932;2022-07-23T07:57:12;9.47;;;5.83;;
11037;SDS011;5572;49.540;11.932;2022-07-23T07:59:38;9.33;;;6.33;;
11037;SDS011;5572;49.540;11.932;2022-07-23T08:02:05;6.40;;;5.80;;
11037;SDS011;5572;49.540;11.932;2022-07-23T08:04:32;6.20;;;5.63;;
11037;SDS011;5572;49.540;11.932;2022-07-23T08:06:58;6.53;;;5.70;;
11037;SDS011;5572;49.540;11.932;2022-07-23T08:09:25;7.65;;;6.03;;
11037;SDS011;5572;49.540;11.932;2022-07-23T08:11:51;6.50;;;5.90;;
11037;SDS011;5572;49.540;11.932;2022-07-23T08:14:19;6.13;;;5.53;;
11037;SDS011;5572;49.540;11.932;2022-07-23T08:16:46;6.43;;;5.85;;
11037;SDS011;5572;49.540;11.932;2022-07-23T08:19:12;6.80;;;5.93;;
11037;SDS011;5572;49.540;11.932;2022-07-23T08:21:39;7.55;;;5.72;;
11037;SDS011;5572;49.540;11.932;2022-07-23T08:24:05;7.28;;;5.93;;
11037;SDS011;5572;49.540;11.932;2022-07-23T08:26:32;6.95;;;6.25;;
11037;SDS011;5572;49.540;11.932;2022-07-23T08:28:58;6.38;;;5.78;;
11037;SDS011;5572;49.540;11.932;2022-07-23T08:31:26;8.18;;;5.72;;
11037;SDS011;5572;49.540;11.932;2022-07-23T08:33:53;6.65;;;6.13;;
11037;SDS011;5572;49.540;11.932;2022-07-23T08:36:20;5.30;;;4.90;;
11037;SDS011;5572;49.540;11.932;2022-07-23T08:38:46;6.55;;;5.82;;
11037;SDS011;5572;49.540;11.932;2022-07-23T08:41:13;5.80;;;5.30;;
11037;SDS011;5572;49.540;11.932;2022-07-23T08:43:41;8.00;;;5.55;;
11037;SDS011;5572;49.540;11.932;2022-07-23T08:46:08;6.00;;;5.40;;
11037;SDS011;5572;49.540;11.932;2022-07-23T08:48:36;9.77;;;5.47;;
11037;SDS011;5572;49.540;11.932;2022-07-23T08:51:04;7.30;;;5.60;;
11037;SDS011;5572;49.540;11.932;2022-07-23T08:53:32;6.35;;;5.32;;
11037;SDS011;5572;49.540;11.932;2022-07-23T08:56:02;5.60;;;5.00;;
11037;SDS011;5572;49.540;11.932;2022-07-23T08:58:29;8.15;;;5.80;;
11037;SDS011;5572;49.540;11.932;2022-07-23T09:00:56;6.05;;;5.55;;
11037;SDS011;5572;49.540;11.932;2022-07-23T09:03:25;5.07;;;4.68;;
11037;SDS011;5572;49.540;11.932;2022-07-23T09:05:54;6.82;;;5.50;;
11037;SDS011;5572;49.540;11.932;2022-07-23T09:08:22;5.82;;;4.80;;
11037;SDS011;5572;49.540;11.932;2022-07-23T09:10:51;5.43;;;4.93;;
11037;SDS011;5572;49.540;11.932;2022-07-23T09:13:23;5.43;;;4.93;;
11037;SDS011;5572;49.540;11.932;2022-07-23T09:16:01;5.90;;;5.20;;
11037;SDS011;5572;49.540;11.932;2022-07-23T09:18:30;5.57;;;5.10;;
11037;SDS011;5572;49.540;11.932;2022-07-23T09:21:06;5.75;;;4.88;;
11037;SDS011;5572;49.540;11.932;2022-07-23T09:23:37;6.05;;;5.53;;
11037;SDS011;5572;49.540;11.932;2022-07-23T09:26:16;5.72;;;5.13;;
11037;SDS011;5572;49.540;11.932;2022-07-23T09:28:50;5.38;;;4.88;;
11037;SDS011;5572;49.540;11.932;2022-07-23T09:31:18;5.72;;;5.20;;
11037;SDS011;5572;49.540;11.932;2022-07-23T09:33:45;5.75;;;5.18;;
11037;SDS011;5572;49.540;11.932;2022-07-23T09:36:13;9.32;;;5.63;;
11037;SDS011;5572;49.540;11.932;2022-07-23T09:38:47;8.25;;;5.15;;
11037;SDS011;5572;49.540;11.932;2022-07-23T09:41:15;13.80;;;5.45;;
11037;SDS011;5572;49.540;11.932;2022-07-23T09:43:42;5.93;;;4.65;;
11037;SDS011;5572;49.540;11.932;2022-07-23T09:48:54;4.90;;;4.50;;
11037;SDS011;5572;49.540;11.932;2022-07-23T09:51:24;4.57;;;4.17;;
11037;SDS011;5572;49.540;11.932;2022-07-23T09:53:57;4.53;;;3.97;;
11037;SDS011;5572;49.540;11.932;2022-07-23T09:56:24;5.00;;;4.00;;
11037;SDS011;5572;49.540;11.932;2022-07-23T09:58:53;4.93;;;4.03;;
11037;SDS011;5572;49.540;11.932;2022-07-23T10:01:28;4.57;;;4.17;;
11037;SDS011;5572;49.540;11.932;2022-07-23T10:03:56;6.43;;;4.63;;
11037;SDS011;5572;49.540;11.932;2022-07-23T10:06:25;4.90;;;4.40;;
11037;SDS011;5572;49.540;11.932;2022-07-23T10:08:52;6.43;;;4.47;;
11037;SDS011;5572;49.540;11.932;2022-07-23T10:11:22;6.17;;;4.20;;
11037;SDS011;5572;49.540;11.932;2022-07-23T10:13:49;6.57;;;4.40;;
11037;SDS011;5572;49.540;11.932;2022-07-23T10:16:17;4.57;;;4.27;;
11037;SDS011;5572;49.540;11.932;2022-07-23T10:18:44;7.53;;;4.87;;
11037;SDS011;5572;49.540;11.932;2022-07-23T10:21:16;4.93;;;4.20;;
11037;SDS011;5572;49.540;11.932;2022-07-23T10:23:51;4.73;;;4.33;;
11037;SDS011;5572;49.540;11.932;2022-07-23T10:26:41;5.07;;;4.57;;
11037;SDS011;5572;49.540;11.932;2022-07-23T10:29:19;5.00;;;4.57;;
11037;SDS011;5572;49.540;11.932;2022-07-23T10:32:00;4.83;;;4.43;;
11037;SDS011;5572;49.540;11.932;2022-07-23T10:34:34;4.73;;;4.33;;
11037;SDS011;5572;49.540;11.932;2022-07-23T10:37:12;5.20;;;4.70;;
11037;SDS011;5572;49.540;11.932;2022-07-23T10:39:47;6.43;;;4.80;;
11037;SDS011;5572;49.540;11.932;2022-07-23T10:42:14;5.33;;;4.83;;
11037;SDS011;5572;49.540;11.932;2022-07-23T10:44:43;5.40;;;4.90;;
11037;SDS011;5572;49.540;11.932;2022-07-23T10:47:11;5.50;;;4.73;;
11037;SDS011;5572;49.540;11.932;2022-07-23T10:49:50;5.50;;;4.90;;
11037;SDS011;5572;49.540;11.932;2022-07-23T10:52:23;5.30;;;4.80;;
11037;SDS011;5572;49.540;11.932;2022-07-23T10:54:54;6.90;;;4.53;;
11037;SDS011;5572;49.540;11.932;2022-07-23T10:57:23;5.20;;;4.70;;
11037;SDS011;5572;49.540;11.932;2022-07-23T11:02:43;4.67;;;4.30;;
11037;SDS011;5572;49.540;11.932;2022-07-23T11:05:12;6.10;;;4.40;;
11037;SDS011;5572;49.540;11.932;2022-07-23T11:10:41;4.63;;;4.13;;
11037;SDS011;5572;49.540;11.932;2022-07-23T11:16:12;5.93;;;4.13;;
11037;SDS011;5572;49.540;11.932;2022-07-23T11:18:53;5.43;;;4.03;;
11037;SDS011;5572;49.540;11.932;2022-07-23T11:21:44;4.47;;;4.07;;
11037;SDS011;5572;49.540;11.932;2022-07-23T11:24:13;6.07;;;4.30;;
11037;SDS011;5572;49.540;11.932;2022-07-23T11:26:46;5.13;;;4.43;;
11037;SDS011;5572;49.540;11.932;2022-07-23T11:32:05;5.20;;;4.13;;
11037;SDS011;5572;49.540;11.932;2022-07-23T11:34:33;4.23;;;3.83;;
11037;SDS011;5572;49.540;11.932;2022-07-23T11:37:02;4.47;;;4.07;;
11037;SDS011;5572;49.540;11.932;2022-07-23T11:39:31;5.07;;;4.17;;
11037;SDS011;5572;49.540;11.932;2022-07-23T11:42:00;6.97;;;4.00;;
11037;SDS011;5572;49.540;11.932;2022-07-23T11:44:30;4.07;;;3.77;;
11037;SDS011;5572;49.540;11.932;2022-07-23T11:46:59;3.90;;;3.60;;
11037;SDS011;5572;49.540;11.932;2022-07-23T11:49:27;5.30;;;4.10;;
11037;SDS011;5572;49.540;11.932;2022-07-23T11:52:04;4.90;;;4.40;;
11037;SDS011;5572;49.540;11.932;2022-07-23T11:54:31;5.07;;;4.23;;
11037;SDS011;5572;49.540;11.932;2022-07-23T11:57:01;4.93;;;4.00;;
11037;SDS011;5572;49.540;11.932;2022-07-23T11:59:31;4.10;;;3.80;;
11037;SDS011;5572;49.540;11.932;2022-07-23T12:01:59;3.90;;;3.60;;
11037;SDS011;5572;49.540;11.932;2022-07-23T12:04:36;4.20;;;3.70;;
11037;SDS011;5572;49.540;11.932;2022-07-23T12:07:04;3.90;;;3.60;;
11037;SDS011;5572;49.540;11.932;2022-07-23T12:09:31;4.40;;;4.00;;
11037;SDS011;5572;49.540;11.932;2022-07-23T12:11:58;4.20;;;3.90;;
11037;SDS011;5572;49.540;11.932;2022-07-23T12:14:26;3.73;;;3.47;;
11037;SDS011;5572;49.540;11.932;2022-07-23T12:19:40;3.90;;;3.60;;
11037;SDS011;5572;49.540;11.932;2022-07-23T12:22:07;4.20;;;3.80;;
11037;SDS011;5572;49.540;11.932;2022-07-23T12:27:20;4.33;;;3.80;;
11037;SDS011;5572;49.540;11.932;2022-07-23T12:29:48;4.20;;;3.80;;
11037;SDS011;5572;49.540;11.932;2022-07-23T12:32:19;3.97;;;3.63;;
11037;SDS011;5572;49.540;11.932;2022-07-23T12:34:48;4.43;;;4.00;;
11037;SDS011;5572;49.540;11.932;2022-07-23T12:37:26;3.72;;;3.50;;
11037;SDS011;5572;49.540;11.932;2022-07-23T12:39:53;3.10;;;2.90;;
11037;SDS011;5572;49.540;11.932;2022-07-23T12:42:20;3.25;;;3.00;;
11037;SDS011;5572;49.540;11.932;2022-07-23T12:45:05;4.07;;;3.78;;
11037;SDS011;5572;49.540;11.932;2022-07-23T12:50:31;4.72;;;3.40;;
11037;SDS011;5572;49.540;11.932;2022-07-23T12:53:03;3.75;;;3.45;;
11037;SDS011;5572;49.540;11.932;2022-07-23T12:55:30;3.03;;;2.83;;
11037;SDS011;5572;49.540;11.932;2022-07-23T12:58:02;3.88;;;3.33;;
11037;SDS011;5572;49.540;11.932;2022-07-23T13:00:32;3.20;;;2.90;;
11037;SDS011;5572;49.540;11.932;2022-07-23T13:03:20;3.45;;;3.20;;
11037;SDS011;5572;49.540;11.932;2022-07-23T13:05:47;3.20;;;2.97;;
11037;SDS011;5572;49.540;11.932;2022-07-23T13:08:14;4.30;;;3.20;;
11037;SDS011;5572;49.540;11.932;2022-07-23T13:10:40;4.03;;;3.63;;
11037;SDS011;5572;49.540;11.932;2022-07-23T13:13:07;5.78;;;3.65;;
11037;SDS011;5572;49.540;11.932;2022-07-23T13:15:37;4.35;;;3.33;;
11037;SDS011;5572;49.540;11.932;2022-07-23T13:18:03;3.60;;;3.40;;
11037;SDS011;5572;49.540;11.932;2022-07-23T13:20:30;3.50;;;3.22;;
11037;SDS011;5572;49.540;11.932;2022-07-23T13:22:58;4.35;;;3.60;;
11037;SDS011;5572;49.540;11.932;2022-07-23T13:25:26;4.25;;;3.88;;
11037;SDS011;5572;49.540;11.932;2022-07-23T13:27:52;4.35;;;4.03;;
11037;SDS011;5572;49.540;11.932;2022-07-23T13:30:19;4.18;;;3.80;;
11037;SDS011;5572;49.540;11.932;2022-07-23T13:32:47;3.47;;;3.20;;
11037;SDS011;5572;49.540;11.932;2022-07-23T13:35:13;4.30;;;3.90;;
11037;SDS011;5572;49.540;11.932;2022-07-23T13:37:40;4.70;;;4.30;;
11037;SDS011;5572;49.540;11.932;2022-07-23T13:40:07;4.65;;;4.22;;
11037;SDS011;5572;49.540;11.932;2022-07-23T13:42:34;3.85;;;3.55;;
11037;SDS011;5572;49.540;11.932;2022-07-23T13:45:02;4.93;;;3.95;;
11037;SDS011;5572;49.540;11.932;2022-07-23T13:47:29;4.00;;;3.70;;
11037;SDS011;5572;49.540;11.932;2022-07-23T13:49:57;4.13;;;3.83;;
11037;SDS011;5572;49.540;11.932;2022-07-23T13:52:23;3.88;;;3.60;;
11037;SDS011;5572;49.540;11.932;2022-07-23T13:54:50;4.47;;;4.07;;
11037;SDS011;5572;49.540;11.932;2022-07-23T13:57:17;3.83;;;3.58;;
11037;SDS011;5572;49.540;11.932;2022-07-23T13:59:43;4.28;;;3.97;;
11037;SDS011;5572;49.540;11.932;2022-07-23T14:02:10;4.43;;;4.03;;
11037;SDS011;5572;49.540;11.932;2022-07-23T14:04:40;4.63;;;4.22;;
11037;SDS011;5572;49.540;11.932;2022-07-23T14:07:08;4.63;;;3.80;;
11037;SDS011;5572;49.540;11.932;2022-07-23T14:09:35;4.93;;;4.03;;
11037;SDS011;5572;49.540;11.932;2022-07-23T14:12:02;4.15;;;3.85;;
11037;SDS011;5572;49.540;11.932;2022-07-23T14:14:30;4.55;;;4.15;;
11037;SDS011;5572;49.540;11.932;2022-07-23T14:16:57;4.40;;;4.00;;
11037;SDS011;5572;49.540;11.932;2022-07-23T14:19:24;5.05;;;4.55;;
11037;SDS011;5572;49.540;11.932;2022-07-23T14:21:51;7.32;;;4.13;;
11037;SDS011;5572;49.540;11.932;2022-07-23T14:24:19;4.43;;;4.13;;
11037;SDS011;5572;49.540;11.932;2022-07-23T14:26:45;4.90;;;4.50;;
11037;SDS011;5572;49.540;11.932;2022-07-23T14:29:12;4.90;;;4.50;;
11037;SDS011;5572;49.540;11.932;2022-07-23T14:31:39;4.40;;;4.10;;
11037;SDS011;5572;49.540;11.932;2022-07-23T14:34:05;4.88;;;4.22;;
11037;SDS011;5572;49.540;11.932;2022-07-23T14:36:32;7.40;;;4.65;;
11037;SDS011;5572;49.540;11.932;2022-07-23T14:38:58;5.40;;;4.68;;
11037;SDS011;5572;49.540;11.932;2022-07-23T14:41:27;5.07;;;4.57;;
11037;SDS011;5572;49.540;11.932;2022-07-23T14:43:54;4.95;;;4.32;;
11037;SDS011;5572;49.540;11.932;2022-07-23T14:46:20;5.30;;;4.80;;
11037;SDS011;5572;49.540;11.932;2022-07-23T14:48:47;5.30;;;4.80;;
11037;SDS011;5572;49.540;11.932;2022-07-23T14:51:14;5.28;;;4.78;;
11037;SDS011;5572;49.540;11.932;2022-07-23T14:53:40;5.60;;;5.10;;
11037;SDS011;5572;49.540;11.932;2022-07-23T14:56:07;5.13;;;4.72;;
11037;SDS011;5572;49.540;11.932;2022-07-23T14:58:35;5.50;;;4.97;;
11037;SDS011;5572;49.540;11.932;2022-07-23T15:01:02;6.15;;;5.55;;
11037;SDS011;5572;49.540;11.932;2022-07-23T15:03:28;6.55;;;5.35;;
11037;SDS011;5572;49.540;11.932;2022-07-23T15:05:55;7.88;;;5.43;;
11037;SDS011;5572;49.540;11.932;2022-07-23T15:08:21;5.93;;;5.32;;
11037;SDS011;5572;49.540;11.932;2022-07-23T15:10:48;6.90;;;6.03;;